Time;durP1;ratioP1;P1;durP2;ratioP2;P2;SDS_P1;SDS_P2;PMS_P1;PMS_P2;Temp;Humidity;BMP_temperature;BMP_pressure;BME280_temperature;BME280_humidity;BME280_pressure;Samples;Min_cycle;Max_cycle;Signal;HPM_P1;HPM_P2
2023/08/15 00:01:42;;;;;;;10.30;7.40;;;;;;;19.38;100.00;97364.22;5017582;28;20040;-61
2023/08/15 00:04:08;;;;;;;8.98;7.20;;;;;;;19.34;100.00;97362.09;5045741;28;20120;-62
2023/08/15 00:06:35;;;;;;;9.27;7.70;;;;;;;19.38;100.00;97372.44;5020807;28;20039;-61
2023/08/15 00:09:01;;;;;;;12.80;8.07;;;;;;;19.38;100.00;97372.44;5001307;28;20399;-61
2023/08/15 00:11:28;;;;;;;12.77;7.55;;;;;;;19.32;100.00;97345.09;4992809;28;20047;-61
2023/08/15 00:13:56;;;;;;;10.25;7.32;;;;;;;19.27;100.00;97336.19;4996951;28;20123;-61
2023/08/15 00:16:23;;;;;;;8.45;6.60;;;;;;;19.22;100.00;97334.38;5007142;28;20680;-61
2023/08/15 00:18:50;;;;;;;11.57;7.82;;;;;;;19.20;100.00;97340.16;5033692;28;20044;-61
2023/08/15 00:21:16;;;;;;;9.43;7.53;;;;;;;19.20;100.00;97359.38;4986347;28;20046;-61
2023/08/15 00:23:43;;;;;;;13.15;7.70;;;;;;;19.27;100.00;97380.09;4983014;28;20454;-61
2023/08/15 00:26:09;;;;;;;13.18;8.05;;;;;;;19.30;100.00;97352.84;4987285;28;20039;-61
2023/08/15 00:28:36;;;;;;;14.63;7.97;;;;;;;19.28;100.00;97337.81;4990862;28;20038;-61
2023/08/15 00:31:03;;;;;;;10.75;7.00;;;;;;;19.22;100.00;97318.72;5008095;28;20432;-61
2023/08/15 00:33:30;;;;;;;10.63;5.90;;;;;;;19.36;100.00;97309.63;5005853;28;20135;-61
2023/08/15 00:35:57;;;;;;;9.80;6.53;;;;;;;19.41;100.00;97293.00;4993016;28;20043;-61
2023/08/15 00:38:23;;;;;;;7.30;5.95;;;;;;;19.45;100.00;97280.28;4995158;28;20043;-61
2023/08/15 00:40:50;;;;;;;10.00;6.57;;;;;;;19.43;100.00;97273.50;5003765;28;20042;-62
2023/08/15 00:43:19;;;;;;;11.50;6.30;;;;;;;19.39;100.00;97273.31;5011349;28;20047;-61
2023/08/15 00:45:46;;;;;;;8.38;6.15;;;;;;;19.36;100.00;97252.75;5001819;28;20029;-61
2023/08/15 00:48:13;;;;;;;9.75;5.95;;;;;;;19.29;100.00;97265.31;4982183;28;20031;-61
2023/08/15 00:50:42;;;;;;;11.45;7.15;;;;;;;19.18;100.00;97275.72;5002270;28;20047;-61
2023/08/15 00:53:11;;;;;;;9.80;6.47;;;;;;;19.16;100.00;97278.78;4990740;28;20075;-61
2023/08/15 00:55:38;;;;;;;11.07;6.22;;;;;;;19.14;100.00;97281.03;5018557;28;20048;-61
2023/08/15 00:58:05;;;;;;;10.25;6.30;;;;;;;19.08;100.00;97279.53;4989727;28;20399;-61
2023/08/15 01:00:32;;;;;;;14.45;6.43;;;;;;;19.11;100.00;97284.41;5025515;28;20052;-61
2023/08/15 01:02:59;;;;;;;9.57;6.40;;;;;;;19.10;100.00;97280.03;5025385;28;20061;-60
2023/08/15 01:05:28;;;;;;;13.13;6.50;;;;;;;19.14;100.00;97282.97;5005529;28;20047;-61
2023/08/15 01:07:55;;;;;;;7.95;5.75;;;;;;;19.12;100.00;97268.75;5018129;28;20035;-61
2023/08/15 01:10:24;;;;;;;7.43;5.50;;;;;;;19.11;100.00;97256.94;5003098;28;20068;-61
2023/08/15 01:13:11;;;;;;;9.65;6.18;;;;;;;19.11;100.00;97267.94;5000285;28;20075;-61
2023/08/15 01:15:49;;;;;;;9.23;6.70;;;;;;;18.98;100.00;97272.28;4998009;28;20035;-61
2023/08/15 01:18:28;;;;;;;10.35;6.47;;;;;;;19.02;100.00;97292.50;5023019;28;20047;-61
2023/08/15 01:20:56;;;;;;;9.43;6.70;;;;;;;19.08;100.00;97296.81;4995958;28;20074;-61
2023/08/15 01:23:33;;;;;;;6.55;5.40;;;;;;;19.11;100.00;97284.41;5030371;28;20047;-61
2023/08/15 01:26:00;;;;;;;9.02;6.45;;;;;;;19.13;100.00;97273.94;4976822;28;20049;-61
2023/08/15 01:28:26;;;;;;;9.40;6.40;;;;;;;19.08;100.00;97257.56;5002882;28;20131;-61
2023/08/15 01:31:06;;;;;;;10.05;6.35;;;;;;;19.09;100.00;97254.50;5003802;28;20040;-61
2023/08/15 01:33:54;;;;;;;8.65;6.53;;;;;;;19.10;100.00;97244.38;4987961;28;20058;-61
2023/08/15 01:36:49;;;;;;;10.68;6.88;;;;;;;19.01;100.00;97257.97;4985635;28;20051;-61
2023/08/15 01:39:23;;;;;;;11.00;6.68;;;;;;;19.03;100.00;97261.22;4979788;28;20743;-61
2023/08/15 01:41:52;;;;;;;8.80;6.80;;;;;;;19.07;100.00;97270.50;5000069;28;20044;-61
2023/08/15 01:44:20;;;;;;;10.35;6.75;;;;;;;19.12;100.00;97279.72;5020006;28;20045;-60
2023/08/15 01:46:47;;;;;;;13.63;7.25;;;;;;;19.10;100.00;97242.41;5007542;28;20046;-60
2023/08/15 01:49:14;;;;;;;9.25;6.57;;;;;;;19.03;100.00;97250.25;5015235;28;20558;-61
2023/08/15 01:51:40;;;;;;;12.52;7.03;;;;;;;19.00;100.00;97248.13;4970440;28;20047;-61
2023/08/15 01:54:07;;;;;;;9.23;6.80;;;;;;;18.94;100.00;97247.44;5005581;28;20038;-61
2023/08/15 01:56:34;;;;;;;8.30;6.28;;;;;;;19.01;100.00;97243.47;4978551;28;20040;-61
2023/08/15 01:59:00;;;;;;;10.73;6.97;;;;;;;19.00;100.00;97247.31;5013891;28;20057;-61
2023/08/15 02:01:27;;;;;;;12.60;7.40;;;;;;;19.00;100.00;97252.78;5040771;28;20127;-61
2023/08/15 02:03:54;;;;;;;10.75;7.88;;;;;;;19.04;100.00;97262.84;5036144;28;20036;-60
2023/08/15 02:06:20;;;;;;;8.65;5.97;;;;;;;19.11;100.00;97256.94;5009624;28;20044;-61
2023/08/15 02:08:47;;;;;;;9.27;6.75;;;;;;;19.17;100.00;97246.66;5006319;28;20063;-61
2023/08/15 02:11:13;;;;;;;10.85;6.50;;;;;;;19.23;100.00;97240.75;4992471;28;20047;-61
2023/08/15 02:13:40;;;;;;;8.50;6.25;;;;;;;19.26;100.00;97222.00;4987245;28;20043;-61
2023/08/15 02:16:06;;;;;;;8.35;6.38;;;;;;;19.18;100.00;97209.84;4979231;28;20114;-61
2023/08/15 02:18:33;;;;;;;10.18;6.72;;;;;;;19.15;100.00;97219.53;4988535;28;20039;-61
2023/08/15 02:21:00;;;;;;;9.70;6.97;;;;;;;19.22;100.00;97208.94;4998830;28;20039;-61
2023/08/15 02:23:26;;;;;;;14.23;7.75;;;;;;;19.27;100.00;97212.69;4994697;28;20048;-61
2023/08/15 02:25:53;;;;;;;10.10;6.70;;;;;;;19.19;100.00;97209.56;4991415;28;20119;-61
2023/08/15 02:28:20;;;;;;;9.55;6.63;;;;;;;19.26;100.00;97216.53;5006184;28;20050;-61
2023/08/15 02:30:52;;;;;;;10.45;6.05;;;;;;;19.44;100.00;97211.97;4927311;28;20647;-62
2023/08/15 02:33:19;;;;;;;6.82;5.85;;;;;;;19.48;100.00;97197.28;4967019;28;20105;-61
2023/08/15 02:35:45;;;;;;;9.10;5.65;;;;;;;19.57;100.00;97199.28;5000781;28;20042;-61
2023/08/15 02:38:12;;;;;;;12.15;6.03;;;;;;;19.57;100.00;97194.56;5010830;28;20041;-61
2023/08/15 02:40:41;;;;;;;9.45;6.22;;;;;;;19.59;100.00;97206.06;4976240;28;20044;-61
2023/08/15 02:43:08;;;;;;;10.02;6.47;;;;;;;19.51;100.00;97195.84;5010306;28;20047;-61
2023/08/15 02:45:34;;;;;;;11.80;6.40;;;;;;;19.49;100.00;97200.84;5031730;28;20046;-61
2023/08/15 02:48:01;;;;;;;12.20;6.80;;;;;;;19.42;100.00;97203.22;4987335;28;20039;-60
2023/08/15 02:50:28;;;;;;;9.48;6.60;;;;;;;19.30;100.00;97207.34;4983434;28;20042;-61
2023/08/15 02:52:55;;;;;;;7.88;6.55;;;;;;;19.29;100.00;97213.16;4986321;28;20544;-61
2023/08/15 02:55:21;;;;;;;8.68;6.80;;;;;;;19.30;100.00;97214.78;4976715;28;20047;-60
2023/08/15 02:57:48;;;;;;;9.88;6.97;;;;;;;19.30;100.00;97218.34;4992173;28;20038;-62
2023/08/15 03:00:14;;;;;;;8.52;6.68;;;;;;;19.32;100.00;97220.78;5002555;28;20043;-61
2023/08/15 03:02:41;;;;;;;11.05;7.18;;;;;;;19.32;100.00;97231.75;4979149;28;20131;-62
2023/08/15 03:05:08;;;;;;;16.00;7.10;;;;;;;19.32;100.00;97232.53;4976840;28;20043;-62
2023/08/15 03:07:35;;;;;;;10.43;7.43;;;;;;;19.35;100.00;97237.41;4974442;28;20129;-61
2023/08/15 03:10:03;;;;;;;12.65;7.43;;;;;;;19.29;100.00;97222.22;5003341;28;20055;-61
2023/08/15 03:12:30;;;;;;;9.70;7.50;;;;;;;19.21;100.00;97234.72;5042555;28;20060;-62
2023/08/15 03:15:00;;;;;;;12.60;7.70;;;;;;;19.18;100.00;97238.13;5005783;28;20467;-61
2023/08/15 03:17:26;;;;;;;13.23;8.15;;;;;;;19.17;100.00;97247.47;4998692;28;20049;-62
2023/08/15 03:19:54;;;;;;;9.13;7.22;;;;;;;19.23;100.00;97227.00;4997518;28;20123;-61
2023/08/15 03:22:21;;;;;;;11.93;7.10;;;;;;;19.27;100.00;97220.91;5008121;28;20132;-61
2023/08/15 03:24:47;;;;;;;10.70;7.32;;;;;;;19.26;100.00;97225.56;5014380;28;20135;-62
2023/08/15 03:27:14;;;;;;;10.68;7.55;;;;;;;19.23;100.00;97238.00;5025915;28;20125;-61
2023/08/15 03:29:41;;;;;;;9.55;7.00;;;;;;;19.22;100.00;97225.41;4999632;28;20098;-62
2023/08/15 03:32:07;;;;;;;11.27;7.10;;;;;;;19.24;100.00;97219.59;4998006;28;20450;-62
2023/08/15 03:34:36;;;;;;;9.73;7.00;;;;;;;19.27;100.00;97226.41;5004869;28;20043;-60
2023/08/15 03:37:03;;;;;;;10.10;7.22;;;;;;;19.29;100.00;97224.13;4995619;28;20053;-61
2023/08/15 03:39:30;;;;;;;14.65;7.25;;;;;;;19.31;100.00;97216.41;4989234;28;20064;-62
2023/08/15 03:41:57;;;;;;;11.10;6.60;;;;;;;19.22;100.00;97224.56;5005662;28;20567;-62
2023/08/15 03:44:23;;;;;;;9.07;6.88;;;;;;;19.22;100.00;97219.91;4999110;28;20042;-61
2023/08/15 03:46:50;;;;;;;10.88;7.15;;;;;;;19.18;100.00;97221.66;4996894;28;20081;-61
2023/08/15 03:49:16;;;;;;;7.80;6.50;;;;;;;19.18;100.00;97224.41;4995940;28;20038;-62
2023/08/15 03:51:44;;;;;;;10.18;7.07;;;;;;;19.17;100.00;97232.94;5010194;28;20086;-63
2023/08/15 03:54:15;;;;;;;10.43;6.68;;;;;;;19.16;100.00;97254.06;5005210;28;20082;-61
2023/08/15 03:56:43;;;;;;;11.57;6.78;;;;;;;19.19;100.00;97258.94;4983839;28;20046;-62
2023/08/15 03:59:09;;;;;;;10.05;6.53;;;;;;;19.41;100.00;97242.78;5015887;28;20407;-61
2023/08/15 04:01:36;;;;;;;14.23;6.53;;;;;;;19.37;100.00;97237.09;5015727;28;20066;-62
2023/08/15 04:04:03;;;;;;;8.60;6.95;;;;;;;19.33;100.00;97244.34;4996481;28;20407;-62
2023/08/15 04:06:30;;;;;;;9.00;6.50;;;;;;;19.17;100.00;97252.16;4976468;28;20039;-62
2023/08/15 04:08:57;;;;;;;8.63;6.70;;;;;;;18.94;100.00;97269.38;4981268;28;20046;-62
2023/08/15 04:11:24;;;;;;;11.15;7.57;;;;;;;18.98;100.00;97302.47;5003272;28;20044;-59
2023/08/15 04:13:50;;;;;;;9.90;6.90;;;;;;;18.88;100.00;97291.75;5019536;28;20076;-62
2023/08/15 04:16:17;;;;;;;10.73;6.70;;;;;;;18.77;100.00;97318.59;4994891;28;20077;-61
2023/08/15 04:18:44;;;;;;;9.32;6.90;;;;;;;18.85;100.00;97339.81;4989061;28;20438;-60
2023/08/15 04:21:11;;;;;;;13.48;7.95;;;;;;;18.72;100.00;97323.06;4982215;28;20134;-62
2023/08/15 04:23:38;;;;;;;11.35;7.40;;;;;;;18.62;100.00;97347.16;4996434;28;20042;-61
2023/08/15 04:26:05;;;;;;;9.18;7.90;;;;;;;18.69;100.00;97366.75;4979928;28;20037;-61
2023/08/15 04:28:31;;;;;;;16.05;9.30;;;;;;;18.71;100.00;97350.78;4982892;28;20085;-61
2023/08/15 04:30:58;;;;;;;10.30;9.20;;;;;;;18.69;100.00;97342.06;5020897;28;20035;-60
2023/08/15 04:33:25;;;;;;;10.75;7.60;;;;;;;18.76;100.00;97341.66;5012965;28;20032;-62
2023/08/15 04:35:51;;;;;;;12.80;8.30;;;;;;;18.81;100.00;97342.38;4986243;28;20064;-62
2023/08/15 04:38:18;;;;;;;13.55;9.32;;;;;;;18.87;100.00;97325.78;4984757;28;20067;-62
2023/08/15 04:40:44;;;;;;;10.05;8.35;;;;;;;18.83;100.00;97312.69;4969742;28;20123;-61
2023/08/15 04:43:11;;;;;;;12.27;7.15;;;;;;;18.88;100.00;97314.50;5024824;28;20052;-63
2023/08/15 04:45:40;;;;;;;14.13;7.57;;;;;;;18.85;100.00;97306.91;4984170;28;20573;-62
2023/08/15 04:48:11;;;;;;;10.63;7.30;;;;;;;18.88;100.00;97325.50;4982270;28;20035;-61
2023/08/15 04:50:39;;;;;;;8.77;7.28;;;;;;;18.94;100.00;97321.50;5007769;28;20036;-61
2023/08/15 04:53:06;;;;;;;10.30;7.80;;;;;;;19.04;100.00;97314.16;5024862;28;20055;-62
2023/08/15 04:55:33;;;;;;;9.95;7.43;;;;;;;19.07;100.00;97308.09;5006639;28;20039;-58
2023/08/15 04:57:59;;;;;;;10.90;8.02;;;;;;;19.10;100.00;97300.03;5042680;28;20040;-62
2023/08/15 05:00:27;;;;;;;14.18;7.05;;;;;;;19.28;100.00;97288.41;5005476;28;20119;-61
2023/08/15 05:02:56;;;;;;;11.90;7.28;;;;;;;19.33;100.00;97283.59;5005022;28;20050;-61
2023/08/15 05:05:23;;;;;;;8.20;6.55;;;;;;;19.44;100.00;97286.91;5003745;28;20044;-60
2023/08/15 05:07:50;;;;;;;8.10;7.05;;;;;;;19.55;100.00;97281.97;5006207;28;20139;-61
2023/08/15 05:10:17;;;;;;;8.57;6.47;;;;;;;19.69;100.00;97289.31;5006433;28;20408;-61
2023/08/15 05:12:43;;;;;;;9.80;6.10;;;;;;;19.82;100.00;97280.16;5007018;28;20703;-61
2023/08/15 05:15:10;;;;;;;8.90;5.75;;;;;;;19.96;100.00;97277.34;5022099;28;20437;-60
2023/08/15 05:17:36;;;;;;;8.70;5.80;;;;;;;20.02;100.00;97283.53;4985796;28;20120;-61
2023/08/15 05:20:04;;;;;;;7.80;5.75;;;;;;;20.01;100.00;97282.72;4977443;28;20050;-61
2023/08/15 05:22:34;;;;;;;11.93;6.60;;;;;;;20.00;100.00;97281.09;4969525;28;20452;-61
2023/08/15 05:25:00;;;;;;;8.80;6.10;;;;;;;19.97;100.00;97280.91;5031494;28;20051;-61
2023/08/15 05:27:28;;;;;;;7.78;5.75;;;;;;;19.97;100.00;97281.69;5008454;28;20055;-61
2023/08/15 05:29:55;;;;;;;13.32;7.05;;;;;;;19.98;100.00;97286.09;4997229;28;20047;-60
2023/08/15 05:32:22;;;;;;;9.30;6.70;;;;;;;20.08;100.00;97293.25;4980940;28;20894;-60
2023/08/15 05:34:48;;;;;;;9.23;6.68;;;;;;;20.10;100.00;97285.53;5008405;28;20494;-60
2023/08/15 05:37:15;;;;;;;8.40;6.53;;;;;;;20.12;100.00;97293.44;4982725;28;20100;-60
2023/08/15 05:39:42;;;;;;;11.00;6.38;;;;;;;20.14;100.00;97297.50;4999851;28;20117;-60
2023/08/15 05:42:10;;;;;;;9.40;6.13;;;;;;;20.30;100.00;97304.50;4990562;28;20163;-61
2023/08/15 05:44:37;;;;;;;9.82;6.03;;;;;;;20.36;100.00;97297.72;5012686;28;20119;-61
2023/08/15 05:47:04;;;;;;;11.27;6.47;;;;;;;20.29;100.00;97300.94;4997682;28;20081;-61
2023/08/15 05:49:30;;;;;;;8.15;5.85;;;;;;;20.26;100.00;97299.63;4991680;28;20043;-61
2023/08/15 05:51:57;;;;;;;9.60;6.15;;;;;;;20.23;100.00;97297.53;4997980;28;20482;-61
2023/08/15 05:54:24;;;;;;;8.10;6.05;;;;;;;20.28;100.00;97302.06;5009424;28;20050;-61
2023/08/15 05:56:50;;;;;;;10.20;6.57;;;;;;;20.31;100.00;97306.91;4989416;28;20043;-61
2023/08/15 05:59:17;;;;;;;8.98;5.47;;;;;;;20.35;100.00;97307.09;5021098;28;20043;-60
2023/08/15 06:01:45;;;;;;;7.40;6.05;;;;;;;20.37;100.00;97313.91;4985693;28;20123;-59
2023/08/15 06:04:11;;;;;;;12.32;6.18;;;;;;;20.34;100.00;97311.78;4988160;28;20502;-61
2023/08/15 06:06:38;;;;;;;11.13;5.75;;;;;;;20.40;100.00;97320.72;4984198;28;20034;-60
2023/08/15 06:09:05;;;;;;;13.00;6.40;;;;;;;20.48;100.00;97317.19;4973452;28;20044;-60
2023/08/15 06:11:31;;;;;;;11.82;6.20;;;;;;;20.56;100.00;97317.53;4991713;28;20045;-61
2023/08/15 06:13:58;;;;;;;8.52;5.28;;;;;;;20.60;100.00;97313.00;4972908;28;20043;-60
2023/08/15 06:16:24;;;;;;;7.40;5.38;;;;;;;20.67;100.00;97316.91;4991203;28;20044;-62
2023/08/15 06:18:51;;;;;;;10.38;5.43;;;;;;;20.77;100.00;97317.72;4990341;28;20111;-61
2023/08/15 06:21:17;;;;;;;7.75;5.05;;;;;;;20.80;100.00;97314.34;4991569;28;20054;-61
2023/08/15 06:23:44;;;;;;;8.07;5.88;;;;;;;20.82;100.00;97314.03;4977548;28;20051;-60
2023/08/15 06:26:10;;;;;;;12.15;6.00;;;;;;;20.73;100.00;97322.25;4984322;28;20040;-61
2023/08/15 06:28:37;;;;;;;7.50;5.45;;;;;;;20.78;100.00;97322.91;4969054;28;20043;-61
2023/08/15 06:31:03;;;;;;;7.43;5.18;;;;;;;20.90;100.00;97329.78;4969014;28;21978;-60
2023/08/15 06:33:30;;;;;;;7.85;5.53;;;;;;;20.98;100.00;97334.47;4968234;28;20413;-61
2023/08/15 06:35:57;;;;;;;9.45;6.20;;;;;;;21.11;100.00;97332.69;4979710;28;20614;-60
2023/08/15 06:38:23;;;;;;;10.93;5.78;;;;;;;21.28;100.00;97331.09;4971767;28;20053;-61
2023/08/15 06:40:50;;;;;;;8.55;6.28;;;;;;;21.50;100.00;97330.13;4994153;28;20038;-60
2023/08/15 06:43:16;;;;;;;9.75;5.68;;;;;;;21.77;100.00;97333.69;4979829;28;20570;-61
2023/08/15 06:45:43;;;;;;;9.63;6.68;;;;;;;22.01;100.00;97345.28;4969745;28;20101;-61
2023/08/15 06:48:09;;;;;;;9.23;6.32;;;;;;;22.26;100.00;97348.31;5005017;28;20061;-61
2023/08/15 06:50:36;;;;;;;9.52;5.60;;;;;;;22.46;100.00;97344.81;4972771;28;20073;-61
2023/08/15 06:53:03;;;;;;;8.05;5.85;;;;;;;22.57;100.00;97338.94;4963916;28;20053;-60
2023/08/15 06:55:29;;;;;;;11.00;6.15;;;;;;;22.62;100.00;97349.78;4992355;28;20550;-60
2023/08/15 06:57:56;;;;;;;9.88;5.80;;;;;;;22.66;100.00;97347.19;4988463;28;20104;-61
2023/08/15 07:00:23;;;;;;;11.27;5.65;;;;;;;22.68;100.00;97354.00;4970994;28;20050;-62
2023/08/15 07:02:50;;;;;;;7.72;5.03;;;;;;;22.75;100.00;97353.47;4963826;28;20050;-60
2023/08/15 07:05:17;;;;;;;13.00;6.43;;;;;;;22.64;100.00;97368.78;4969941;28;20134;-61
2023/08/15 07:07:43;;;;;;;11.30;6.57;;;;;;;22.58;100.00;97374.50;4980827;28;20180;-59
2023/08/15 07:10:10;;;;;;;9.32;5.60;;;;;;;22.68;100.00;97378.00;4935645;28;20043;-61
2023/08/15 07:12:37;;;;;;;9.68;6.47;;;;;;;22.75;100.00;97372.78;4980340;28;20396;-60
2023/08/15 07:15:04;;;;;;;8.30;6.13;;;;;;;22.84;100.00;97381.81;4966799;28;20061;-61
2023/08/15 07:17:30;;;;;;;10.98;6.65;;;;;;;22.92;100.00;97377.41;4980424;28;20037;-61
2023/08/15 07:19:58;;;;;;;7.82;5.38;;;;;;;22.99;100.00;97379.63;4943021;28;20050;-60
2023/08/15 07:22:24;;;;;;;9.38;6.70;;;;;;;23.01;99.22;97385.63;4980435;28;20560;-61
2023/08/15 07:24:51;;;;;;;11.30;6.70;;;;;;;22.97;99.94;97382.72;4996894;28;20042;-60
2023/08/15 07:27:18;;;;;;;13.90;6.85;;;;;;;22.99;100.00;97382.38;5014750;28;20068;-61
2023/08/15 07:29:44;;;;;;;13.02;7.05;;;;;;;22.91;100.00;97378.53;4996648;28;20037;-61
2023/08/15 07:32:11;;;;;;;7.20;5.60;;;;;;;22.90;100.00;97379.69;5005230;28;20544;-61
2023/08/15 07:34:40;;;;;;;11.18;6.07;;;;;;;22.93;100.00;97369.94;4987046;28;20130;-61
2023/08/15 07:37:07;;;;;;;12.65;6.53;;;;;;;22.96;100.00;97377.56;4996559;28;20038;-61
2023/08/15 07:39:34;;;;;;;11.55;6.50;;;;;;;23.02;100.00;97383.66;5001138;28;20121;-60
2023/08/15 07:42:01;;;;;;;9.32;5.35;;;;;;;23.11;99.31;97382.47;5014408;28;20043;-60
2023/08/15 07:44:28;;;;;;;10.93;5.97;;;;;;;23.15;98.75;97376.28;5021284;28;20699;-61
2023/08/15 07:46:54;;;;;;;9.82;6.10;;;;;;;23.18;98.84;97373.66;5012955;28;20039;-61
2023/08/15 07:49:21;;;;;;;12.32;6.47;;;;;;;23.22;100.00;97360.78;4986281;28;20558;-60
2023/08/15 07:51:48;;;;;;;10.68;6.65;;;;;;;23.18;100.00;97365.38;4993406;28;20122;-61
2023/08/15 07:54:15;;;;;;;9.25;5.82;;;;;;;23.17;100.00;97380.31;4995545;28;20036;-60
2023/08/15 07:56:41;;;;;;;11.18;6.40;;;;;;;23.17;100.00;97383.09;5011773;28;20044;-61
2023/08/15 07:59:08;;;;;;;9.90;6.72;;;;;;;23.11;100.00;97378.91;4988857;28;20033;-61
2023/08/15 08:01:34;;;;;;;10.88;6.50;;;;;;;23.08;100.00;97368.53;5012128;28;20126;-60
2023/08/15 08:04:01;;;;;;;10.93;7.25;;;;;;;23.09;100.00;97370.16;4996643;28;20530;-61
2023/08/15 08:06:28;;;;;;;8.27;6.78;;;;;;;22.98;100.00;97366.97;4975405;28;20045;-61
2023/08/15 08:09:06;;;;;;;10.80;6.88;;;;;;;22.89;100.00;97369.81;4996630;28;20045;-61
2023/08/15 08:11:33;;;;;;;11.15;6.88;;;;;;;22.89;100.00;97361.53;5021337;28;20072;-61
2023/08/15 08:13:59;;;;;;;12.38;6.78;;;;;;;22.97;100.00;97355.09;4995223;28;20062;-60
2023/08/15 08:16:26;;;;;;;9.38;5.90;;;;;;;23.19;100.00;97352.38;4997739;28;20051;-61
2023/08/15 08:18:53;;;;;;;8.95;6.28;;;;;;;23.34;100.00;97354.56;4981254;28;20050;-60
2023/08/15 08:21:20;;;;;;;11.30;7.53;;;;;;;23.43;100.00;97356.47;5010075;28;20043;-60
2023/08/15 08:23:46;;;;;;;9.57;6.70;;;;;;;23.56;98.83;97355.38;4973792;28;20096;-61
2023/08/15 08:26:13;;;;;;;9.25;6.65;;;;;;;23.65;100.00;97358.03;5021759;28;20053;-60
2023/08/15 08:28:40;;;;;;;10.07;6.65;;;;;;;23.78;100.00;97356.94;4988565;28;20058;-60
2023/08/15 08:31:07;;;;;;;13.45;6.85;;;;;;;23.83;100.00;97361.47;4984733;28;20054;-60
2023/08/15 08:33:33;;;;;;;9.68;5.80;;;;;;;23.95;99.84;97355.16;4989123;28;20047;-62
2023/08/15 08:36:00;;;;;;;10.88;6.20;;;;;;;23.98;99.84;97354.47;4979311;28;20047;-61
2023/08/15 08:38:26;;;;;;;8.77;6.05;;;;;;;23.85;99.27;97356.38;4989401;28;20112;-62
2023/08/15 08:40:57;;;;;;;9.70;6.57;;;;;;;23.92;99.59;97358.63;5021027;28;20037;-61
2023/08/15 08:43:25;;;;;;;10.00;5.93;;;;;;;23.99;98.57;97361.63;4979312;28;20039;-61
2023/08/15 08:45:55;;;;;;;8.25;5.53;;;;;;;24.17;98.62;97369.75;4996836;28;20149;-63
2023/08/15 08:48:22;;;;;;;7.93;6.13;;;;;;;24.31;99.44;97365.84;4988730;28;20571;-61
2023/08/15 08:50:50;;;;;;;11.23;5.97;;;;;;;24.36;99.39;97362.88;4993051;28;20039;-61
2023/08/15 08:53:16;;;;;;;9.43;5.55;;;;;;;24.52;96.17;97363.84;4992605;28;20046;-61
2023/08/15 08:55:47;;;;;;;8.85;5.88;;;;;;;24.62;95.48;97370.84;5031045;28;20122;-61
2023/08/15 08:58:14;;;;;;;8.57;5.63;;;;;;;24.56;93.77;97372.25;4984671;28;20530;-61
2023/08/15 09:00:41;;;;;;;9.95;6.13;;;;;;;24.31;96.30;97371.38;4975466;28;20594;-60
2023/08/15 09:03:09;;;;;;;10.15;6.25;;;;;;;24.46;95.99;97379.03;4971390;28;20047;-60
2023/08/15 09:05:37;;;;;;;8.73;6.55;;;;;;;24.44;97.00;97370.28;4975435;28;20046;-60
2023/08/15 09:08:04;;;;;;;9.45;6.03;;;;;;;24.46;96.94;97378.25;4995588;28;20077;-60
2023/08/15 09:10:30;;;;;;;9.70;5.85;;;;;;;24.59;95.50;97379.03;4997082;28;20532;-61
2023/08/15 09:13:00;;;;;;;7.30;5.88;;;;;;;24.72;94.02;97383.44;4985421;28;20062;-61
2023/08/15 09:15:28;;;;;;;8.27;5.25;;;;;;;24.76;93.53;97383.56;5003110;28;20047;-61
2023/08/15 09:18:00;;;;;;;7.30;4.85;;;;;;;24.95;91.69;97380.25;4986163;28;20097;-60
2023/08/15 09:20:27;;;;;;;9.98;5.53;;;;;;;25.06;91.20;97386.91;4976304;28;20676;-60
2023/08/15 09:22:58;;;;;;;8.63;4.88;;;;;;;25.14;90.29;97393.47;4964788;28;20039;-61
2023/08/15 09:25:27;;;;;;;11.55;5.30;;;;;;;25.26;89.78;97387.13;4980324;28;20047;-61
2023/08/15 09:27:53;;;;;;;11.45;5.75;;;;;;;25.25;88.84;97393.81;4977434;28;20119;-62
2023/08/15 09:30:21;;;;;;;12.32;5.82;;;;;;;25.12;89.40;97389.44;5010996;28;20047;-62
2023/08/15 09:32:48;;;;;;;9.98;5.93;;;;;;;25.10;89.47;97394.53;5018336;28;20496;-61
2023/08/15 09:35:17;;;;;;;9.38;5.55;;;;;;;24.99;88.33;97385.88;4988656;28;20047;-61
2023/08/15 09:37:48;;;;;;;7.68;5.10;;;;;;;25.03;88.35;97390.34;4991415;28;20033;-62
2023/08/15 09:40:25;;;;;;;9.15;5.05;;;;;;;25.31;86.67;97386.88;5005781;28;20122;-62
2023/08/15 09:42:53;;;;;;;7.72;4.90;;;;;;;25.58;84.48;97381.72;5006812;28;20072;-60
2023/08/15 09:45:20;;;;;;;11.60;5.80;;;;;;;25.60;83.03;97381.38;4999292;28;20065;-60
2023/08/15 09:47:47;;;;;;;9.68;4.78;;;;;;;25.73;82.94;97379.38;5012445;28;20420;-59
2023/08/15 09:50:15;;;;;;;6.90;4.63;;;;;;;26.00;80.26;97395.53;5033847;28;20051;-61
2023/08/15 09:52:44;;;;;;;9.27;5.15;;;;;;;26.16;81.61;97395.59;5021202;28;20082;-60
2023/08/15 09:55:13;;;;;;;11.38;4.97;;;;;;;26.20;76.51;97393.72;5007862;28;20046;-62
2023/08/15 09:57:41;;;;;;;6.90;4.78;;;;;;;26.19;75.66;97392.91;5002863;28;20062;-61
2023/08/15 10:00:13;;;;;;;6.95;4.15;;;;;;;26.24;73.21;97395.41;5006700;28;20062;-60
2023/08/15 10:03:09;;;;;;;10.32;3.40;;;;;;;26.26;69.17;97397.03;5012185;28;20030;-60
2023/08/15 10:05:39;;;;;;;9.48;3.08;;;;;;;26.08;61.37;97395.41;5005977;28;20067;-61
2023/08/15 10:08:07;;;;;;;6.80;2.70;;;;;;;25.93;61.75;97393.38;4998602;28;20043;-60
2023/08/15 10:10:36;;;;;;;7.25;2.67;;;;;;;25.94;60.60;97404.13;5000052;28;20045;-61
2023/08/15 10:13:09;;;;;;;6.18;2.80;;;;;;;25.88;62.75;97399.19;5006955;28;20048;-61
2023/08/15 10:15:36;;;;;;;6.45;2.33;;;;;;;26.00;61.01;97407.47;4999986;28;20113;-61
2023/08/15 10:18:04;;;;;;;7.43;2.95;;;;;;;25.92;60.51;97411.19;5013250;28;20110;-61
2023/08/15 10:20:38;;;;;;;6.25;2.55;;;;;;;25.95;60.33;97408.50;4995573;28;20109;-58
2023/08/15 10:23:09;;;;;;;6.03;2.50;;;;;;;26.02;62.08;97423.75;5012037;28;20609;-59
2023/08/15 10:25:39;;;;;;;6.65;2.85;;;;;;;26.13;61.48;97418.50;5008162;28;20052;-59
2023/08/15 10:28:12;;;;;;;6.03;2.42;;;;;;;26.09;61.53;97418.41;5015170;28;20074;-58
2023/08/15 10:30:47;;;;;;;8.60;3.22;;;;;;;25.89;65.83;97411.88;4992932;28;20039;-58
2023/08/15 10:33:20;;;;;;;4.57;2.63;;;;;;;25.83;64.24;97423.25;5006932;28;20046;-58
2023/08/15 10:35:54;;;;;;;5.53;2.65;;;;;;;25.70;65.04;97427.22;4979604;28;20410;-59
2023/08/15 10:38:30;;;;;;;6.85;2.88;;;;;;;25.83;64.06;97430.75;5001678;28;20040;-59
2023/08/15 10:41:04;;;;;;;6.75;2.75;;;;;;;25.97;64.89;97424.81;4990673;28;20041;-59
2023/08/15 10:43:35;;;;;;;6.15;2.60;;;;;;;26.22;66.06;97433.00;4992230;28;20042;-58
2023/08/15 10:46:04;;;;;;;;;;;;;;;26.48;61.88;97431.75;4994720;28;20048;-60
2023/08/15 10:48:43;;;;;;;7.55;2.58;;;;;;;26.69;61.19;97439.00;4983478;28;19930;-58
2023/08/15 10:51:34;;;;;;;5.93;2.42;;;;;;;26.83;61.09;97433.81;4972513;28;20046;-60
2023/08/15 10:54:06;;;;;;;5.53;2.25;;;;;;;27.03;63.29;97431.16;5002804;28;20043;-59
2023/08/15 10:56:35;;;;;;;6.30;2.22;;;;;;;26.89;61.77;97426.00;4984121;28;20126;-58
2023/08/15 10:59:20;;;;;;;8.07;2.92;;;;;;;27.07;60.70;97425.66;4967455;28;20053;-58
2023/08/15 11:01:47;;;;;;;7.60;3.30;;;;;;;27.17;61.69;97424.31;4978731;28;20685;-59
2023/08/15 11:04:17;;;;;;;9.25;3.40;;;;;;;27.27;62.11;97420.97;4982318;28;20058;-59
2023/08/15 11:06:46;;;;;;;6.95;3.53;;;;;;;27.37;61.67;97423.19;5009891;28;20045;-59
2023/08/15 11:09:14;;;;;;;7.65;4.20;;;;;;;27.32;62.75;97428.22;5006815;28;20065;-60
2023/08/15 11:11:40;;;;;;;6.47;3.40;;;;;;;27.27;61.73;97429.31;4978795;28;20073;-60
2023/08/15 11:14:16;;;;;;;7.00;4.22;;;;;;;27.11;64.07;97430.16;4934113;28;20050;-59
2023/08/15 11:16:45;;;;;;;7.03;3.67;;;;;;;27.07;64.50;97426.47;4961280;28;20049;-59
2023/08/15 11:19:17;;;;;;;6.97;3.70;;;;;;;27.36;64.84;97429.09;4981295;28;20037;-58
2023/08/15 11:21:44;;;;;;;6.30;3.83;;;;;;;27.40;64.63;97430.00;5005299;28;20393;-59
2023/08/15 11:24:11;;;;;;;11.18;5.20;;;;;;;27.49;63.80;97427.03;4997218;28;20057;-60
2023/08/15 11:26:39;;;;;;;8.15;3.85;;;;;;;27.31;64.34;97435.75;4973550;28;20047;-59
2023/08/15 11:29:05;;;;;;;7.50;3.83;;;;;;;27.58;62.43;97430.41;4985197;28;20124;-57